Flight Track Log - Related Links

Times and Time Zones

All times are in EDT time to prevent confusion due to time zone crossing. See the ASQ4295 flight status page for this flight to view local times or setup timezone preferences in your user account.

Time Position Orientation Groundspeed Altitude Reporting Facility
EDT Latitude Longitude Course Direction KTS MPH feet Rate Location/Type
Wed 02:22:43 PM 29.9575 -95.3442 41° Northeast 159 183 700  Level Houston Center
Wed 02:23:57 PM 29.9253 -95.3817 225° Southwest 204 235 2,600 1,348 Climbing Houston Center
Wed 02:24:12 PM 29.9317 -95.3886 317° Northwest 213 245 2,700 1,309 Climbing Houston Center
Wed 02:24:52 PM 29.9842 -95.3819 North 274 315 3,800 1,258 Climbing Houston Center
Wed 02:25:00 PM 30.2866 -95.2062 14° North  Level FlightAware Approximate
Wed 02:25:14 PM 29.9986 -95.3756 21° North 247 284 4,000  Level Houston Center
Wed 02:25:54 PM 30.0500 -95.3450 27° Northeast 269 310 5,600 1,839 Climbing Houston Center
Wed 02:26:00 PM 30.3902 -95.1716 23° Northeast  Level FlightAware Approximate
Wed 02:26:16 PM 30.0644 -95.3325 37° Northeast 271 312 5,900  Level Houston Center
Wed 02:26:49 PM 30.1081 -95.2897 40° Northeast 285 328 7,300 1,935 Climbing Houston Center
Wed 02:27:00 PM 30.4876 -95.1175 27° Northeast  Level FlightAware Approximate
Wed 02:27:18 PM 30.1256 -95.2731 39° Northeast 287 330 7,900  Level Houston Center
Wed 02:28:00 PM 30.5841 -95.0659 41° Northeast  Level FlightAware Approximate
Wed 02:28:22 PM 30.2164 -95.2294 23° Northeast 306 352 10,100  Level Houston Center
Wed 02:29:23 PM 30.2983 -95.2053 14° North 306 352 11,100 968 Climbing Houston Center
Wed 02:30:26 PM 30.3914 -95.1781 14° North 340 391 12,100 1,268 Climbing Houston Center
Wed 02:31:26 PM 30.4864 -95.1392 19° North 346 398 13,700 1,512 Climbing Houston Center
Wed 02:32:29 PM 30.5694 -95.0872 28° Northeast 339 390 15,200 1,440 Climbing Houston Center
Wed 02:33:31 PM 30.6511 -95.0367 28° Northeast 334 384 16,700 1,258 Climbing Houston Center
Wed 02:34:33 PM 30.7508 -94.9744 28° Northeast 338 389 17,800 1,016 Climbing Houston Center
Wed 02:35:35 PM 30.8372 -94.9208 28° Northeast 350 403 18,800 919 Climbing Houston Center
Wed 02:36:37 PM 30.9253 -94.8661 28° Northeast 359 413 19,700 871 Climbing Houston Center
Wed 02:37:39 PM 31.0097 -94.8133 28° Northeast 365 420 20,600 968 Climbing Houston Center
Wed 02:38:41 PM 31.1181 -94.7450 28° Northeast 373 429 21,700 960 Climbing Houston Center
Wed 02:39:44 PM 31.2092 -94.6853 29° Northeast 374 430 22,600 912 Climbing Houston Center
Wed 02:40:46 PM 31.2989 -94.6250 30° Northeast 373 429 23,600 919 Climbing Houston Center
Wed 02:41:48 PM 31.3903 -94.5614 31° Northeast 375 432 24,500 871 Climbing Houston Center
Wed 02:42:50 PM 31.4744 -94.4897 36° Northeast 375 432 25,400 919 Climbing Houston Center
Wed 02:43:52 PM 31.5558 -94.4122 39° Northeast 376 433 26,400 1,016 Climbing Houston Center
Wed 02:44:54 PM 31.6536 -94.3200 39° Northeast 375 432 27,500 968 Climbing Houston Center
Wed 02:45:56 PM 31.7375 -94.2425 38° Northeast 382 440 28,400 864 Climbing Houston Center
Wed 02:46:59 PM 31.8172 -94.1650 40° Northeast 379 436 29,300 768 Climbing Houston Center
Wed 02:48:01 PM 31.9003 -94.0856 39° Northeast 383 441 30,000 429 Climbing Houston Center
Wed 02:48:37 PM 31.9550 -94.0319 40° Northeast 381 438 30,000 500 Level Fort Worth Center
Wed 02:49:37 PM 32.0447 -93.9503 38° Northeast 391 450 30,800 900 Climbing Fort Worth Center
Wed 02:50:37 PM 32.1319 -93.8636 40° Northeast 396 456 31,800 1,250 Climbing Fort Worth Center
Wed 02:51:37 PM 32.2275 -93.7692 40° Northeast 401 461 33,300 1,400 Climbing Fort Worth Center
Wed 02:52:37 PM 32.3106 -93.6869 40° Northeast 396 456 34,600 1,300 Climbing Fort Worth Center
Wed 02:53:37 PM 32.3897 -93.6125 38° Northeast 379 436 35,900 1,150 Climbing Fort Worth Center
Wed 02:54:37 PM 32.4669 -93.5378 39° Northeast 365 420 36,900 550 Climbing Fort Worth Center
Wed 02:55:37 PM 32.5419 -93.4656 39° Northeast 354 407 37,000 50 Climbing Fort Worth Center
Wed 02:56:37 PM 32.6228 -93.3881 39° Northeast 354 407 37,000  Level Fort Worth Center
Wed 02:57:37 PM 32.7078 -93.3053 39° Northeast 371 427 37,000  Level Fort Worth Center
Wed 02:58:37 PM 32.7928 -93.2222 39° Northeast 383 441 37,000  Level Fort Worth Center
Wed 02:59:37 PM 32.8817 -93.1364 39° Northeast 396 456 37,000  Level Fort Worth Center
Wed 03:00:37 PM 32.9728 -93.0481 39° Northeast 406 467 37,000  Level Fort Worth Center
Wed 03:01:37 PM 33.0633 -92.9594 39° Northeast 418 481 37,000  Level Fort Worth Center
Wed 03:02:37 PM 33.1561 -92.8678 40° Northeast 423 487 37,000  Level Fort Worth Center
Wed 03:04:32 PM 33.3286 -92.6992 39° Northeast 435 501 37,000  Level Memphis Center
Wed 03:05:32 PM 33.4219 -92.6072 39° Northeast 435 501 37,000  Level Memphis Center
Wed 03:06:32 PM 33.5114 -92.5172 40° Northeast 428 493 37,000  Level Memphis Center
Wed 03:07:32 PM 33.6025 -92.4247 40° Northeast 428 493 37,000  Level Memphis Center
Wed 03:08:32 PM 33.6958 -92.3347 39° Northeast 423 487 37,000  Level Memphis Center
Wed 03:09:32 PM 33.7850 -92.2442 40° Northeast 423 487 37,000  Level Memphis Center
Wed 03:10:32 PM 33.8803 -92.1536 38° Northeast 423 487 37,000  Level Memphis Center
Wed 03:11:32 PM 33.9714 -92.0578 41° Northeast 428 493 37,000  Level Memphis Center
Wed 03:12:32 PM 34.0622 -91.9669 40° Northeast 428 493 37,000  Level Memphis Center
Wed 03:13:32 PM 34.1511 -91.8706 42° Northeast 423 487 37,000  Level Memphis Center
Wed 03:14:32 PM 34.2419 -91.7767 41° Northeast 417 480 37,000  Level Memphis Center
Wed 03:15:32 PM 34.3306 -91.6878 40° Northeast 417 480 37,000  Level Memphis Center
Wed 03:16:32 PM 34.4317 -91.5836 40° Northeast 423 487 37,000  Level Memphis Center
Wed 03:17:32 PM 34.5225 -91.4889 41° Northeast 429 494 37,000  Level Memphis Center
Wed 03:18:32 PM 34.6150 -91.3969 39° Northeast 436 502 37,000  Level Memphis Center
Wed 03:19:32 PM 34.7097 -91.2994 40° Northeast 431 496 37,000  Level Memphis Center
Wed 03:20:32 PM 34.8000 -91.2044 41° Northeast 431 496 37,000  Level Memphis Center
Wed 03:21:32 PM 34.8967 -91.1092 39° Northeast 439 505 37,000  Level Memphis Center
Wed 03:22:32 PM 34.9889 -91.0111 41° Northeast 439 505 37,000  Level Memphis Center
Wed 03:23:32 PM 35.0728 -90.9228 41° Northeast 439 505 37,000  Level Memphis Center
Wed 03:24:32 PM 35.1672 -90.8244 40° Northeast 439 505 37,000  Level Memphis Center
Wed 03:25:32 PM 35.2592 -90.7233 42° Northeast 434 499 37,000  Level Memphis Center
Wed 03:26:32 PM 35.3533 -90.6244 41° Northeast 444 511 37,000  Level Memphis Center
Wed 03:27:32 PM 35.4475 -90.5253 41° Northeast 439 505 37,000  Level Memphis Center
Wed 03:28:32 PM 35.5497 -90.4158 41° Northeast 444 511 37,000  Level Memphis Center
Wed 03:29:32 PM 35.6436 -90.3161 41° Northeast 444 511 37,000  Level Memphis Center
Wed 03:30:32 PM 35.7228 -90.2242 43° Northeast 437 503 37,000  Level Memphis Center
Wed 03:31:32 PM 35.8186 -90.1214 41° Northeast 437 503 37,000  Level Memphis Center
Wed 03:32:32 PM 35.9122 -90.0239 40° Northeast 437 503 37,000  Level Memphis Center
Wed 03:33:32 PM 36.0036 -89.9233 42° Northeast 437 503 37,000  Level Memphis Center
Wed 03:34:32 PM 36.0992 -89.8228 40° Northeast 437 503 37,000  Level Memphis Center
Wed 03:35:32 PM 36.1925 -89.7217 41° Northeast 437 503 37,000  Level Memphis Center
Wed 03:36:32 PM 36.2814 -89.6258 41° Northeast 437 503 37,000  Level Memphis Center
Wed 03:37:32 PM 36.3789 -89.5244 40° Northeast 437 503 37,000  Level Memphis Center
Wed 03:38:32 PM 36.4761 -89.4150 42° Northeast 449 517 37,000  Level Memphis Center
Wed 03:39:32 PM 36.5814 -89.3000 41° Northeast 457 526 37,000  Level Memphis Center
Wed 03:40:32 PM 36.6556 -89.2164 42° Northeast 457 526 37,000  Level Memphis Center
Wed 03:41:32 PM 36.7650 -89.0931 42° Northeast 452 520 37,000  Level Memphis Center
Wed 03:42:32 PM 36.8575 -88.9906 42° Northeast 446 513 37,000  Level Memphis Center
Wed 03:43:32 PM 36.9294 -88.9036 44° Northeast 446 513 37,000  Level Memphis Center
Wed 03:44:32 PM 37.0406 -88.7847 40° Northeast 439 505 37,000  Level Memphis Center
Wed 03:45:32 PM 37.1331 -88.6814 42° Northeast 439 505 37,000  Level Memphis Center
Wed 03:46:32 PM 37.2275 -88.5778 41° Northeast 439 505 37,000  Level Memphis Center
Wed 03:47:32 PM 37.3197 -88.4714 43° Northeast 439 505 37,000  Level Memphis Center
Wed 03:48:37 PM 37.4089 -88.3608 45° Northeast 450 518 37,000  Level Indianapolis Center
Wed 03:49:39 PM 37.5092 -88.2464 42° Northeast 457 526 37,000  Level Indianapolis Center
Wed 03:50:41 PM 37.5983 -88.1433 42° Northeast 454 522 37,000  Level Indianapolis Center
Wed 03:51:43 PM 37.6806 -88.0150 51° Northeast 469 540 37,000  Level Indianapolis Center
Wed 03:52:45 PM 37.7519 -87.8469 62° Northeast 465 535 37,000  Level Indianapolis Center
Wed 03:53:47 PM 37.8044 -87.7247 61° Northeast 463 533 37,000  Level Indianapolis Center
Wed 03:54:49 PM 37.8750 -87.5550 62° Northeast 455 524 37,000  Level Indianapolis Center
Wed 03:55:51 PM 37.9328 -87.4172 62° Northeast 448 516 37,000 -48 Level Indianapolis Center
Wed 03:56:53 PM 37.9889 -87.2811 62° Northeast 439 505 36,900 -484 Descending Indianapolis Center
Wed 03:57:55 PM 38.0458 -87.1431 62° Northeast 441 507 36,000 -968 Descending Indianapolis Center
Wed 03:58:57 PM 38.1053 -86.9992 62° Northeast 461 531 34,900 -968 Descending Indianapolis Center
Wed 03:59:59 PM 38.1742 -86.8294 63° Northeast 458 527 34,000 -435 Descending Indianapolis Center
Wed 04:01:01 PM 38.2331 -86.6889 62° Northeast 456 525 34,000  Level Indianapolis Center
Wed 04:02:03 PM 38.2917 -86.5447 63° Northeast 459 528 34,000 -48 Level Indianapolis Center
Wed 04:03:06 PM 38.3508 -86.3981 63° Northeast 464 534 33,900 -576 Descending Indianapolis Center
Wed 04:04:08 PM 38.4078 -86.2564 63° Northeast 454 522 32,800 -1,113 Descending Indianapolis Center
Wed 04:05:10 PM 38.4661 -86.1125 63° Northeast 455 524 31,600 -1,355 Descending Indianapolis Center
Wed 04:06:12 PM 38.5378 -85.9344 63° Northeast 467 537 30,000 -1,258 Descending Indianapolis Center
Wed 04:07:14 PM 38.5956 -85.7853 64° Northeast 467 537 29,000 -484 Descending Indianapolis Center
Wed 04:08:16 PM 38.6525 -85.6408 63° Northeast 461 531 29,000  Level Indianapolis Center
Wed 04:09:18 PM 38.7111 -85.4944 63° Northeast 463 533 29,000 -290 Level Indianapolis Center
Wed 04:10:20 PM 38.7686 -85.3450 64° Northeast 469 540 28,400 -774 Descending Indianapolis Center
Wed 04:11:22 PM 38.8275 -85.1942 63° Northeast 475 547 27,400 -1,161 Descending Indianapolis Center
Wed 04:12:24 PM 38.8989 -85.0111 63° Northeast 480 552 26,000 -1,210 Descending Indianapolis Center
Wed 04:13:26 PM 38.9542 -84.8669 64° Northeast 485 558 24,900 -968 Descending Indianapolis Center
Wed 04:14:28 PM 39.0119 -84.7150 64° Northeast 473 544 24,000 -532 Descending Indianapolis Center
Wed 04:15:30 PM 39.0942 -84.5622 55° Northeast 444 511 23,800 -774 Descending Indianapolis Center
Wed 04:16:32 PM 39.1694 -84.4269 54° Northeast 457 526 22,400 -1,355 Descending Indianapolis Center
Wed 04:17:34 PM 39.2458 -84.2886 54° Northeast 468 539 21,000 -1,306 Descending Indianapolis Center
Wed 04:18:36 PM 39.3156 -84.1478 57° Northeast 463 533 19,700 -1,008 Descending Indianapolis Center
Wed 04:19:39 PM 39.3703 -84.0014 64° Northeast 452 520 18,900 -960 Descending Indianapolis Center
Wed 04:20:41 PM 39.4244 -83.8600 64° Northeast 439 505 17,700 -2,081 Descending Indianapolis Center
Wed 04:21:43 PM 39.4864 -83.6967 64° Northeast 432 497 14,600 -2,891 Descending Indianapolis Center
Wed 04:22:31 PM 39.5272 -83.5944 63° Northeast 412 474 12,400 -2,118 Descending Indianapolis Center
Wed 04:23:25 PM 39.5689 -83.4806 65° Northeast 384 442 11,000 -1,184 Descending Indianapolis Center
Wed 04:23:47 PM 39.5828 -83.4414 65° Northeast 384 442 10,900 -689 Descending Indianapolis Center
Wed 04:24:26 PM 39.6256 -83.3656 54° Northeast 374 430 10,300 -871 Descending Indianapolis Center
Wed 04:24:49 PM 39.6439 -83.3322 54° Northeast 376 433 10,000 -295 Descending Indianapolis Center
Wed 04:25:27 PM 39.6872 -83.2619 51° Northeast 365 420 10,000 -97 Level Indianapolis Center
Wed 04:25:51 PM 39.7056 -83.2319 52° Northeast 362 417 9,900  Descending Indianapolis Center
Wed 04:26:28 PM 39.7486 -83.1633 51° Northeast 349 402 10,000  Climbing Indianapolis Center
Wed 04:26:53 PM 39.7669 -83.1283 56° Northeast 361 415 9,900 -98 Descending Indianapolis Center
Wed 04:27:29 PM 39.7989 -83.0417 64° Northeast 351 404 9,900 -97 Level Indianapolis Center
Wed 04:27:55 PM 39.8069 -82.9961 77° East 331 381 9,800 -787 Descending Indianapolis Center
Wed 04:28:30 PM 39.8186 -82.9356 76° East 295 339 9,100 -1,258 Descending Indianapolis Center
Wed 04:28:57 PM 39.8289 -82.8906 73° East 305 351 8,500 -1,475 Descending Indianapolis Center
Wed 04:29:31 PM 39.8403 -82.8319 76° East 293 337 7,600 -1,645 Descending Indianapolis Center
Wed 04:29:59 PM 39.8517 -82.7867 72° East 296 341 6,800 -1,475 Descending Indianapolis Center
Wed 04:30:32 PM 39.8639 -82.7314 74° East 287 330 6,100 -1,548 Descending Indianapolis Center
Wed 04:31:01 PM 39.8811 -82.6964 57° Northeast 273 314 5,200 -1,869 Descending Indianapolis Center
Wed 04:31:33 PM 39.9164 -82.6639 35° Northeast 247 284 4,200 -1,452 Descending Indianapolis Center
Wed 04:32:03 PM 39.9381 -82.6439 35° Northeast 252 290 3,700 -1,082 Descending Indianapolis Center
Wed 04:32:34 PM 39.9728 -82.6347 11° North 217 250 3,100 -774 Descending Indianapolis Center
Wed 04:33:05 PM 39.9864 -82.6575 308° West 232 267 2,900 -98 Descending Indianapolis Center
Wed 04:33:35 PM 39.9917 -82.6967 280° West 180 207 3,000 -97 Climbing Indianapolis Center
Wed 04:34:07 PM 39.9936 -82.7378 274° West 200 230 2,800 -600 Descending Indianapolis Center
Wed 04:34:35 PM 39.9950 -82.7706 273° West 199 229 2,400 -857 Descending Indianapolis Center

Login

Don't have an account? Register now (free) for customized features, flight alerts, and more!